Erin, Wisconsin
Current Conditions -  °F | °C
As of 6:15 AM on Friday 31 Oct 2014 (Local Time) from KRNH Reporting Station
Overcast Overcast  
Wind Chill: 17°   Ceiling: 3600
Heat Index: 28°   Visibility: 10mi
Dew Point: 17°   Wind: 13mph
Humidity: 63%   Direction: 350°N
Pressure: 30.46"   Gusts: 20mph
Location:  45.1804°N, 92.551°W
Report Text: KRNH 311115Z AUTO 35011G17KT 10SM OVC036 M02/M08 A3046 RMK AO2 T10221084
Loading
Personal Weather Stations






























Interactive Weather Map
Tropical Storm Tracking
New forecast layout! Learn more

10-Day Weather Forecast

Advertisements
Track Severe Weather on mobile